LOT3HB EPWA-EPKK
Flight info
| Callsign | LOT3HB |
|---|---|
| Flight time | N/A |
| Altitude | 20000 |
| Route | EVINA DCT KUKAM |
| Aircraft | B738/M-SDE2E3FGHIJ1RWXYZ/LB1 |
Departure
| Time | 2026-05-01 14:45 |
|---|---|
| Airport | Warsaw Chopin Airport (EPWA) |
Arrival
| Time | N/A |
|---|---|
| Airport | Kraków John Paul II International Airport (EPKK) |
| Time | Latitude | Longitude | Altitude | Speed | Heading |
|---|---|---|---|---|---|
| 2026-05-01 13:15 | 52.17004 | 20.96843 | 335 ft | 0 kts | 276° |
| 2026-05-01 13:17 | 52.17088 | 20.96774 | 332 ft | 0 kts | 276° |
| 2026-05-01 14:36 | 52.17089 | 20.96760 | 334 ft | 4 kts | 275° |
| 2026-05-01 14:36 | 52.17081 | 20.96704 | 338 ft | 5 kts | 227° |
| 2026-05-01 14:36 | 52.17045 | 20.96700 | 336 ft | 6 kts | 161° |
| 2026-05-01 14:37 | 52.17002 | 20.96735 | 336 ft | 8 kts | 153° |
| 2026-05-01 14:37 | 52.16956 | 20.96775 | 336 ft | 7 kts | 152° |
| 2026-05-01 14:37 | 52.16912 | 20.96814 | 336 ft | 7 kts | 152° |
| 2026-05-01 14:37 | 52.16869 | 20.96852 | 336 ft | 7 kts | 151° |
| 2026-05-01 14:38 | 52.16827 | 20.96888 | 336 ft | 7 kts | 153° |
| 2026-05-01 14:38 | 52.16786 | 20.96924 | 334 ft | 7 kts | 151° |
| 2026-05-01 14:38 | 52.16745 | 20.96959 | 335 ft | 7 kts | 152° |
| 2026-05-01 14:38 | 52.16705 | 20.96994 | 337 ft | 6 kts | 151° |
| 2026-05-01 14:39 | 52.16668 | 20.97032 | 338 ft | 6 kts | 127° |
| 2026-05-01 14:39 | 52.16650 | 20.97103 | 336 ft | 8 kts | 114° |
| 2026-05-01 14:39 | 52.16619 | 20.97207 | 337 ft | 11 kts | 116° |
| 2026-05-01 14:39 | 52.16589 | 20.97321 | 335 ft | 11 kts | 114° |
| 2026-05-01 14:40 | 52.16557 | 20.97430 | 334 ft | 11 kts | 115° |
| 2026-05-01 14:40 | 52.16527 | 20.97537 | 334 ft | 10 kts | 115° |
| 2026-05-01 14:40 | 52.16497 | 20.97639 | 334 ft | 10 kts | 116° |
| 2026-05-01 14:40 | 52.16470 | 20.97733 | 336 ft | 8 kts | 115° |
| 2026-05-01 14:41 | 52.16438 | 20.97800 | 338 ft | 7 kts | 153° |
| 2026-05-01 14:41 | 52.16392 | 20.97786 | 338 ft | 6 kts | 204° |
| 2026-05-01 14:41 | 52.16390 | 20.97785 | 338 ft | 0 kts | 204° |
| 2026-05-01 14:42 | 52.16388 | 20.97783 | 338 ft | 2 kts | 204° |
| 2026-05-01 14:42 | 52.16349 | 20.97754 | 338 ft | 10 kts | 205° |
| 2026-05-01 14:43 | 52.16306 | 20.97717 | 336 ft | 3 kts | 226° |
| 2026-05-01 14:43 | 52.16306 | 20.97676 | 335 ft | 4 kts | 287° |
| 2026-05-01 14:43 | 52.16308 | 20.97667 | 336 ft | 0 kts | 291° |
| 2026-05-01 14:44 | 52.16323 | 20.97610 | 334 ft | 27 kts | 294° |
| 2026-05-01 14:44 | 52.16865 | 20.95679 | 350 ft | 152 kts | 298° |
| 2026-05-01 14:44 | 52.17347 | 20.94028 | 830 ft | 158 kts | 301° |
| 2026-05-01 14:45 | 52.17664 | 20.92947 | 1369 ft | 160 kts | 299° |
| 2026-05-01 14:45 | 52.18129 | 20.88370 | 2250 ft | 214 kts | 258° |
| 2026-05-01 14:45 | 52.17718 | 20.85996 | 2749 ft | 220 kts | 260° |
| 2026-05-01 14:46 | 52.17366 | 20.83535 | 3251 ft | 228 kts | 261° |
| 2026-05-01 14:46 | 52.16883 | 20.78940 | 3862 ft | 262 kts | 263° |
| 2026-05-01 14:46 | 52.16488 | 20.75994 | 4521 ft | 269 kts | 259° |
| 2026-05-01 14:47 | 52.16050 | 20.73018 | 5326 ft | 269 kts | 258° |
| 2026-05-01 14:47 | 52.15240 | 20.70244 | 6002 ft | 282 kts | 232° |
| 2026-05-01 14:47 | 52.13757 | 20.68088 | 6600 ft | 293 kts | 218° |
| 2026-05-01 14:48 | 52.10544 | 20.64012 | 8212 ft | 291 kts | 221° |
| 2026-05-01 14:48 | 52.08908 | 20.61955 | 8741 ft | 304 kts | 217° |
| 2026-05-01 14:48 | 52.05389 | 20.57832 | 10128 ft | 317 kts | 218° |
| 2026-05-01 14:49 | 52.01714 | 20.53349 | 10936 ft | 351 kts | 219° |
| 2026-05-01 14:49 | 51.97758 | 20.48392 | 12092 ft | 368 kts | 219° |
| 2026-05-01 14:50 | 51.94142 | 20.44589 | 13323 ft | 376 kts | 197° |
| 2026-05-01 14:50 | 51.88078 | 20.43280 | 14976 ft | 384 kts | 181° |
| 2026-05-01 14:51 | 51.85406 | 20.42940 | 15711 ft | 388 kts | 181° |
| 2026-05-01 14:51 | 51.79978 | 20.42201 | 17233 ft | 394 kts | 182° |
| 2026-05-01 14:52 | 51.74547 | 20.41391 | 19019 ft | 390 kts | 182° |
| 2026-05-01 14:52 | 51.71830 | 20.40979 | 19535 ft | 397 kts | 182° |
| 2026-05-01 14:52 | 51.66351 | 20.40146 | 19982 ft | 391 kts | 182° |
| 2026-05-01 14:53 | 51.63654 | 20.39736 | 20223 ft | 389 kts | 182° |
| 2026-05-01 14:53 | 51.60943 | 20.39325 | 20281 ft | 392 kts | 182° |
| 2026-05-01 14:53 | 51.58232 | 20.38914 | 20279 ft | 389 kts | 182° |
| 2026-05-01 14:53 | 51.55542 | 20.38507 | 20291 ft | 389 kts | 182° |
| 2026-05-01 14:54 | 51.52846 | 20.38102 | 20288 ft | 390 kts | 182° |
| 2026-05-01 14:54 | 51.50144 | 20.37696 | 20297 ft | 390 kts | 182° |
| 2026-05-01 14:54 | 51.47476 | 20.37297 | 20288 ft | 391 kts | 182° |
| 2026-05-01 14:54 | 51.44767 | 20.36892 | 20290 ft | 391 kts | 182° |
| 2026-05-01 14:55 | 51.42063 | 20.36486 | 20293 ft | 391 kts | 182° |
| 2026-05-01 14:55 | 51.39357 | 20.36075 | 20284 ft | 391 kts | 183° |
| 2026-05-01 14:55 | 51.36682 | 20.35204 | 20284 ft | 394 kts | 194° |
| 2026-05-01 14:55 | 51.34074 | 20.33866 | 20287 ft | 393 kts | 197° |
| 2026-05-01 14:56 | 51.31490 | 20.32436 | 20282 ft | 393 kts | 198° |
| 2026-05-01 14:56 | 51.28910 | 20.31001 | 20275 ft | 390 kts | 197° |
| 2026-05-01 14:56 | 51.26365 | 20.29607 | 20094 ft | 385 kts | 197° |
| 2026-05-01 14:56 | 51.23841 | 20.28254 | 19871 ft | 381 kts | 197° |
| 2026-05-01 14:57 | 51.21336 | 20.26934 | 19596 ft | 377 kts | 196° |
| 2026-05-01 14:57 | 51.16365 | 20.24352 | 18910 ft | 374 kts | 196° |
| 2026-05-01 14:57 | 51.13896 | 20.23078 | 18568 ft | 372 kts | 196° |
| 2026-05-01 14:58 | 51.11437 | 20.21811 | 18187 ft | 371 kts | 196° |
| 2026-05-01 14:58 | 51.08990 | 20.20552 | 17825 ft | 369 kts | 196° |
| 2026-05-01 14:58 | 51.06559 | 20.19303 | 17477 ft | 367 kts | 196° |
| 2026-05-01 14:58 | 51.04134 | 20.18058 | 17136 ft | 364 kts | 196° |
| 2026-05-01 14:59 | 51.01732 | 20.16825 | 16812 ft | 362 kts | 196° |
| 2026-05-01 14:59 | 50.99348 | 20.15603 | 16483 ft | 359 kts | 195° |
| 2026-05-01 14:59 | 50.96977 | 20.14390 | 16163 ft | 357 kts | 196° |
| 2026-05-01 14:59 | 50.94624 | 20.13187 | 15841 ft | 354 kts | 195° |
| 2026-05-01 15:00 | 50.89955 | 20.10805 | 15199 ft | 351 kts | 195° |
| 2026-05-01 15:00 | 50.87638 | 20.09624 | 14884 ft | 349 kts | 195° |
| 2026-05-01 15:00 | 50.85325 | 20.08447 | 14563 ft | 348 kts | 195° |
| 2026-05-01 15:01 | 50.83025 | 20.07276 | 14244 ft | 347 kts | 195° |
| 2026-05-01 15:01 | 50.80721 | 20.06141 | 13893 ft | 345 kts | 191° |
| 2026-05-01 15:01 | 50.78364 | 20.05718 | 13545 ft | 339 kts | 178° |
| 2026-05-01 15:01 | 50.76018 | 20.05632 | 13239 ft | 336 kts | 177° |
| 2026-05-01 15:02 | 50.73679 | 20.05583 | 12892 ft | 335 kts | 177° |
| 2026-05-01 15:02 | 50.72140 | 20.05546 | 12686 ft | 333 kts | 177° |
| 2026-05-01 15:02 | 50.69052 | 20.05450 | 12248 ft | 331 kts | 178° |
| 2026-05-01 15:02 | 50.66756 | 20.05362 | 11932 ft | 329 kts | 178° |
| 2026-05-01 15:03 | 50.64473 | 20.05265 | 11626 ft | 327 kts | 179° |
| 2026-05-01 15:03 | 50.62199 | 20.05163 | 11307 ft | 326 kts | 179° |
| 2026-05-01 15:03 | 50.59940 | 20.05058 | 11004 ft | 324 kts | 179° |
| 2026-05-01 15:03 | 50.57685 | 20.04953 | 10686 ft | 323 kts | 179° |
| 2026-05-01 15:04 | 50.55454 | 20.04849 | 10467 ft | 318 kts | 179° |
| 2026-05-01 15:04 | 50.53265 | 20.04746 | 10293 ft | 311 kts | 179° |
| 2026-05-01 15:04 | 50.51108 | 20.04645 | 9995 ft | 310 kts | 179° |
| 2026-05-01 15:04 | 50.48961 | 20.04544 | 9689 ft | 308 kts | 180° |
| 2026-05-01 15:05 | 50.46821 | 20.04437 | 9393 ft | 307 kts | 181° |
| 2026-05-01 15:05 | 50.44700 | 20.04314 | 9177 ft | 302 kts | 181° |
| 2026-05-01 15:05 | 50.42626 | 20.04186 | 9021 ft | 295 kts | 181° |
| 2026-05-01 15:05 | 50.40620 | 20.04065 | 8869 ft | 290 kts | 181° |
| 2026-05-01 15:06 | 50.38612 | 20.03950 | 8732 ft | 288 kts | 181° |
| 2026-05-01 15:06 | 50.36606 | 20.03837 | 8587 ft | 289 kts | 181° |
| 2026-05-01 15:06 | 50.34599 | 20.03722 | 8451 ft | 289 kts | 181° |
| 2026-05-01 15:06 | 50.32559 | 20.03603 | 8308 ft | 290 kts | 181° |
| 2026-05-01 15:07 | 50.30552 | 20.03483 | 8001 ft | 296 kts | 182° |
| 2026-05-01 15:07 | 50.28506 | 20.03523 | 7738 ft | 292 kts | 171° |
| 2026-05-01 15:07 | 50.26538 | 20.04107 | 7580 ft | 284 kts | 167° |
| 2026-05-01 15:07 | 50.24631 | 20.04780 | 7418 ft | 278 kts | 165° |
| 2026-05-01 15:08 | 50.22937 | 20.06047 | 7236 ft | 266 kts | 135° |
| 2026-05-01 15:08 | 50.21882 | 20.08282 | 7134 ft | 249 kts | 110° |
| 2026-05-01 15:08 | 50.21449 | 20.10802 | 7011 ft | 235 kts | 92° |
| 2026-05-01 15:08 | 50.21544 | 20.13299 | 6904 ft | 229 kts | 78° |
| 2026-05-01 15:09 | 50.21858 | 20.15768 | 6817 ft | 236 kts | 76° |
| 2026-05-01 15:09 | 50.22205 | 20.18303 | 6698 ft | 241 kts | 76° |
| 2026-05-01 15:09 | 50.22569 | 20.20873 | 6545 ft | 243 kts | 76° |
| 2026-05-01 15:09 | 50.22922 | 20.23441 | 6418 ft | 240 kts | 76° |
| 2026-05-01 15:10 | 50.23264 | 20.25977 | 6278 ft | 236 kts | 77° |
| 2026-05-01 15:10 | 50.22955 | 20.30909 | 6043 ft | 243 kts | 129° |
| 2026-05-01 15:10 | 50.21589 | 20.32440 | 5936 ft | 245 kts | 160° |
| 2026-05-01 15:11 | 50.19943 | 20.33127 | 5813 ft | 247 kts | 169° |
| 2026-05-01 15:11 | 50.16551 | 20.33107 | 5576 ft | 250 kts | 211° |
| 2026-05-01 15:11 | 50.15275 | 20.31346 | 5441 ft | 245 kts | 240° |
| 2026-05-01 15:12 | 50.14635 | 20.28938 | 5332 ft | 240 kts | 261° |
| 2026-05-01 15:12 | 50.13972 | 20.23828 | 5074 ft | 239 kts | 263° |
| 2026-05-01 15:12 | 50.13649 | 20.21307 | 4967 ft | 236 kts | 263° |
| 2026-05-01 15:13 | 50.12754 | 20.13822 | 4525 ft | 234 kts | 262° |
| 2026-05-01 15:14 | 50.12056 | 20.08894 | 4274 ft | 235 kts | 262° |
| 2026-05-01 15:14 | 50.11707 | 20.06411 | 4157 ft | 235 kts | 262° |
| 2026-05-01 15:14 | 50.10992 | 20.01372 | 3583 ft | 238 kts | 261° |
| 2026-05-01 15:15 | 50.10304 | 19.96515 | 2950 ft | 216 kts | 263° |
| 2026-05-01 15:15 | 50.09696 | 19.92199 | 2409 ft | 190 kts | 264° |
| 2026-05-01 15:16 | 50.09164 | 19.88422 | 1949 ft | 162 kts | 266° |
| 2026-05-01 15:16 | 50.08605 | 19.85251 | 1518 ft | 148 kts | 255° |
| 2026-05-01 15:17 | 50.08294 | 19.82230 | 1245 ft | 142 kts | 263° |
| 2026-05-01 15:18 | 50.07515 | 19.77457 | 2209 ft | 173 kts | 261° |
| 2026-05-01 15:18 | 50.07199 | 19.75560 | 2816 ft | 188 kts | 259° |
| 2026-05-01 15:19 | 50.06166 | 19.69230 | 4006 ft | 227 kts | 259° |
| 2026-05-01 15:19 | 50.05526 | 19.64135 | 4016 ft | 243 kts | 265° |
| 2026-05-01 15:19 | 50.05273 | 19.61551 | 3974 ft | 241 kts | 264° |
| 2026-05-01 15:20 | 50.04620 | 19.56093 | 3993 ft | 265 kts | 261° |
| 2026-05-01 15:20 | 50.04234 | 19.53267 | 4007 ft | 267 kts | 260° |
| 2026-05-01 15:20 | 50.03837 | 19.50449 | 3988 ft | 266 kts | 261° |
| 2026-05-01 15:21 | 50.03442 | 19.47647 | 3996 ft | 265 kts | 260° |
| 2026-05-01 15:21 | 50.03301 | 19.44833 | 3988 ft | 259 kts | 284° |
| 2026-05-01 15:21 | 50.04082 | 19.42385 | 4000 ft | 255 kts | 314° |
| 2026-05-01 15:21 | 50.05499 | 19.40772 | 4001 ft | 253 kts | 337° |
| 2026-05-01 15:22 | 50.08929 | 19.39646 | 3997 ft | 252 kts | 352° |
| 2026-05-01 15:22 | 50.10652 | 19.39204 | 3989 ft | 249 kts | 351° |
| 2026-05-01 15:22 | 50.12352 | 19.38763 | 3995 ft | 247 kts | 351° |
| 2026-05-01 15:23 | 50.14050 | 19.38335 | 3996 ft | 248 kts | 351° |
| 2026-05-01 15:23 | 50.15767 | 19.37897 | 3996 ft | 251 kts | 351° |
| 2026-05-01 15:23 | 50.17475 | 19.37355 | 4217 ft | 252 kts | 340° |
| 2026-05-01 15:23 | 50.18914 | 19.35798 | 4442 ft | 257 kts | 311° |
| 2026-05-01 15:24 | 50.19697 | 19.33288 | 4705 ft | 263 kts | 283° |
| 2026-05-01 15:24 | 50.19766 | 19.30429 | 4981 ft | 266 kts | 271° |
| 2026-05-01 15:24 | 50.19673 | 19.27546 | 4984 ft | 271 kts | 270° |
| 2026-05-01 15:24 | 50.19555 | 19.24620 | 4985 ft | 269 kts | 269° |
| 2026-05-01 15:25 | 50.19159 | 19.21782 | 4984 ft | 271 kts | 246° |
| 2026-05-01 15:25 | 50.17966 | 19.19489 | 5008 ft | 278 kts | 218° |
| 2026-05-01 15:25 | 50.16202 | 19.18256 | 5010 ft | 282 kts | 190° |
| 2026-05-01 15:25 | 50.14241 | 19.18199 | 5022 ft | 284 kts | 176° |
| 2026-05-01 15:26 | 50.12269 | 19.18461 | 4996 ft | 284 kts | 174° |
| 2026-05-01 15:26 | 50.10309 | 19.18759 | 4984 ft | 281 kts | 174° |
| 2026-05-01 15:26 | 50.08376 | 19.19042 | 4991 ft | 278 kts | 178° |
| 2026-05-01 15:26 | 50.06486 | 19.18521 | 4998 ft | 279 kts | 206° |
| 2026-05-01 15:27 | 50.04964 | 19.16717 | 5007 ft | 276 kts | 234° |
| 2026-05-01 15:27 | 50.04119 | 19.14087 | 5010 ft | 272 kts | 255° |
| 2026-05-01 15:27 | 50.03607 | 19.11245 | 5004 ft | 273 kts | 258° |
| 2026-05-01 15:28 | 50.02124 | 19.05849 | 5000 ft | 279 kts | 226° |
| 2026-05-01 15:28 | 50.00476 | 19.04278 | 4994 ft | 279 kts | 198° |
| 2026-05-01 15:28 | 49.98597 | 19.04050 | 4990 ft | 267 kts | 169° |
| 2026-05-01 15:29 | 49.95852 | 19.07153 | 4995 ft | 243 kts | 113° |
| 2026-05-01 15:29 | 49.95378 | 19.09623 | 5006 ft | 238 kts | 92° |
| 2026-05-01 15:29 | 49.96015 | 19.14479 | 5002 ft | 229 kts | 64° |
| 2026-05-01 15:30 | 49.97052 | 19.18247 | 4997 ft | 228 kts | 63° |
| 2026-05-01 15:31 | 49.99752 | 19.28112 | 5001 ft | 230 kts | 64° |
| 2026-05-01 15:31 | 50.00979 | 19.32678 | 5015 ft | 223 kts | 64° |
| 2026-05-01 15:32 | 50.02004 | 19.37135 | 4991 ft | 220 kts | 75° |
| 2026-05-01 15:32 | 50.02616 | 19.41719 | 4771 ft | 209 kts | 75° |
| 2026-05-01 15:33 | 50.03484 | 19.47974 | 4161 ft | 188 kts | 74° |
| 2026-05-01 15:34 | 50.04282 | 19.53625 | 3617 ft | 173 kts | 75° |